Atlanta, GA (31196)

7:27 PM EST on December 27, 2014 (GMT -0500)
Whittier Mill Village | Change Station
CLOSE
Current Station
Personal Weather Station
Location: Atlanta, GA
Elevation: 814 ft
Nearby Weather Stations
Active Advisory: Areal Flood Watch

Elev 814 ft 33.81 °N, 84.48 °W | Updated 2 seconds ago

Mostly Cloudy
Mostly Cloudy
53.3 °F
Feels Like 53.3 °F
N
0.0
Wind Variable Wind from North
Gusts 0.0 mph

Today
High -- | Low -- °F
--% Chance of Precip.
Yesterday
High -- | Low -- °F
Precip. -- in
7:41 AM 5:36 PM
Waxing Crescent, 41% visible
Pressure 30.23 in
Visibility 10.0 miles
Clouds Mostly Cloudy 11000 ft
Dew Point 47 °F
Humidity 80%
Rainfall 0.02 in
Snow Depth Not available.
UV 0 out of 12
Pollen 1.30 out of 12
Air Quality Not available.
Flu Activity Not available.
METAR KFTY 272353Z 00000KT 10SM -RA BKN110 12/09 A3023 RMK AO2 RAB05 SLP237 P0002 60002 T01170089 10167 20111 53011

More Conditions Fewer Conditions

Pressure 30.23 in
Visibility 10.0 miles
Clouds Mostly Cloudy 11000 ft
Dew Point 47 °F
Humidity 80%
Rainfall 0.02 in
Snow Depth Not available.
UV 0 out of 12
Pollen 1.30 out of 12
Air Quality Not available.
Flu Activity Not available.
METAR KFTY 272353Z 00000KT 10SM -RA BKN110 12/09 A3023 RMK AO2 RAB05 SLP237 P0002 60002 T01170089 10167 20111 53011

More Conditions Fewer Conditions

10-Day Weather Forecast

Almanac

Astronomy

Dec. 27, 2014 Rise Set
Actual Time
Civil Twilight
Nautical Twilight
Astronomical Twilight
Moon
Length of Visible Light
Length of Day
Tomorrow will be .
, % of the Moon is Illuminated

Today's Extremes

State Highs State Lows

Community

WunderPhotos

Upload Photos

1,781,116 photos uploaded!

WunderBlogs® & News

Nearby

Air Quality

  Air Quality AQ Index Pollutant
Not available.

Snow Depth

Station Depth Elevation

Earthquake Activity

City Distance Mag. Time & Date
Minimum magnitude displayed is 2.5.

Coastal Water Temperatures

Place Temperature

Nearby Weather Stations